Time;durP1;ratioP1;P1;durP2;ratioP2;P2;SDS_P1;SDS_P2;PMS_P1;PMS_P2;Temp;Humidity;BMP_temperature;BMP_pressure;BME280_temperature;BME280_humidity;BME280_pressure;Samples;Min_cycle;Max_cycle;Signal;HPM_P1;HPM_P2
2021/07/21 00:00:06;;;;;;;20.58;9.93;;;15.80;96.00;;;;;;5071475;28;20569;-80
2021/07/21 00:02:32;;;;;;;14.38;8.57;;;15.80;95.80;;;;;;5080359;28;20024;-80
2021/07/21 00:04:58;;;;;;;14.55;9.75;;;15.80;96.30;;;;;;5091912;28;20028;-80
2021/07/21 00:07:23;;;;;;;15.18;9.73;;;15.80;96.20;;;;;;5091845;28;20019;-81
2021/07/21 00:09:50;;;;;;;17.40;9.05;;;15.80;95.00;;;;;;5093076;28;20032;-80
2021/07/21 00:15:01;;;;;;;18.98;9.98;;;15.70;95.30;;;;;;5093112;28;20047;-80
2021/07/21 00:17:32;;;;;;;16.33;9.10;;;15.70;95.50;;;;;;5092859;28;20032;-81
2021/07/21 00:20:07;;;;;;;13.27;10.05;;;15.70;96.20;;;;;;5093153;28;20026;-81
2021/07/21 00:22:39;;;;;;;22.63;8.98;;;15.70;97.30;;;;;;5090321;28;20077;-80
2021/07/21 00:25:07;;;;;;;12.87;9.30;;;15.60;98.30;;;;;;5087810;28;20029;-80
2021/07/21 00:27:34;;;;;;;14.90;9.15;;;15.70;99.40;;;;;;5071254;28;20254;-80
2021/07/21 00:30:00;;;;;;;15.50;9.05;;;15.70;99.00;;;;;;5071463;28;20487;-80
2021/07/21 00:32:25;;;;;;;20.20;9.18;;;15.60;99.50;;;;;;5071210;28;20112;-80
2021/07/21 00:34:51;;;;;;;14.15;9.45;;;15.60;99.60;;;;;;5071763;28;20025;-80
2021/07/21 00:37:17;;;;;;;12.68;8.43;;;15.60;99.50;;;;;;5077471;28;20032;-80
2021/07/21 00:39:42;;;;;;;19.23;8.63;;;15.50;99.50;;;;;;5095589;28;20469;-80
2021/07/21 00:42:08;;;;;;;14.20;9.20;;;15.50;99.70;;;;;;5095741;28;20024;-80
2021/07/21 00:44:34;;;;;;;15.95;9.15;;;15.50;99.70;;;;;;5095402;28;20105;-80
2021/07/21 00:47:00;;;;;;;14.88;8.93;;;15.50;99.60;;;;;;5095562;28;20051;-80
2021/07/21 00:49:25;;;;;;;13.13;9.52;;;15.40;99.90;;;;;;5095245;28;20024;-80
2021/07/21 00:51:52;;;;;;;22.42;9.27;;;15.50;99.60;;;;;;5097105;28;20609;-81
2021/07/21 00:54:18;;;;;;;17.67;8.70;;;15.50;98.90;;;;;;5079692;28;20031;-81
2021/07/21 00:56:44;;;;;;;16.08;8.45;;;15.50;98.90;;;;;;5076438;28;20024;-81
2021/07/21 00:59:10;;;;;;;12.63;9.13;;;15.50;98.50;;;;;;5076061;28;20040;-81
2021/07/21 01:01:36;;;;;;;12.85;8.82;;;15.50;99.50;;;;;;5076244;28;20535;-81
2021/07/21 01:04:03;;;;;;;14.23;8.98;;;15.50;99.00;;;;;;5076084;28;20033;-81
2021/07/21 01:06:29;;;;;;;15.35;8.60;;;15.50;99.90;;;;;;5074897;28;20139;-81
2021/07/21 01:08:55;;;;;;;12.88;9.05;;;15.50;99.90;;;;;;5076036;28;20104;-81
2021/07/21 01:11:42;;;;;;;14.02;8.90;;;15.50;99.90;;;;;;5076067;28;20440;-81
2021/07/21 01:14:28;;;;;;;14.38;8.52;;;15.50;99.90;;;;;;5074490;28;20394;-81
2021/07/21 01:16:59;;;;;;;12.75;8.93;;;15.40;99.90;;;;;;5076014;28;20099;-81
2021/07/21 01:19:46;;;;;;;12.45;8.05;;;15.40;99.90;;;;;;5074419;28;20389;-81
2021/07/21 01:22:24;;;;;;;14.07;8.15;;;15.40;99.90;;;;;;5088573;28;20062;-80
2021/07/21 01:25:17;;;;;;;12.85;7.85;;;15.40;99.90;;;;;;5094441;28;20032;-80
2021/07/21 01:27:53;;;;;;;;;;;15.30;99.90;;;;;;5095186;28;20024;-80
2021/07/21 01:30:22;;;;;;;13.05;7.50;;;15.30;99.90;;;;;;5096001;28;19998;-81
2021/07/21 01:32:55;;;;;;;12.18;8.57;;;15.30;99.90;;;;;;5094428;28;20032;-81
2021/07/21 01:35:25;;;;;;;15.25;7.70;;;15.30;99.90;;;;;;5094700;28;20020;-81
2021/07/21 01:37:58;;;;;;;13.80;8.27;;;15.20;99.90;;;;;;5094417;28;20060;-81
2021/07/21 01:40:28;;;;;;;17.50;7.93;;;15.20;99.10;;;;;;5094624;28;20084;-81
2021/07/21 01:42:58;;;;;;;14.68;7.72;;;15.20;98.90;;;;;;5094155;28;20024;-81
2021/07/21 01:45:26;;;;;;;12.35;7.43;;;15.20;97.20;;;;;;5094190;28;20058;-81
2021/07/21 01:47:52;;;;;;;12.20;7.18;;;15.20;96.20;;;;;;5093995;28;20028;-81
2021/07/21 01:50:19;;;;;;;11.15;7.63;;;15.20;95.90;;;;;;5094366;28;20028;-82
2021/07/21 01:52:48;;;;;;;11.95;7.15;;;15.20;96.00;;;;;;5075593;28;20021;-81
2021/07/21 01:55:17;;;;;;;11.45;7.55;;;15.20;95.50;;;;;;5074291;28;20115;-81
2021/07/21 01:57:45;;;;;;;15.43;8.25;;;15.20;93.70;;;;;;5073801;28;20120;-81
2021/07/21 02:00:13;;;;;;;15.27;8.23;;;15.20;93.20;;;;;;5073877;28;20021;-81
2021/07/21 02:02:40;;;;;;;14.13;8.15;;;15.20;94.60;;;;;;5076202;28;20040;-81
2021/07/21 02:05:07;;;;;;;11.35;7.18;;;15.10;96.30;;;;;;5075176;28;20016;-81
2021/07/21 02:07:34;;;;;;;12.40;7.78;;;15.10;97.00;;;;;;5073544;28;20067;-80
2021/07/21 02:10:00;;;;;;;13.43;7.85;;;15.00;98.40;;;;;;5073818;28;20029;-81
2021/07/21 02:12:27;;;;;;;14.82;7.75;;;14.90;99.10;;;;;;5074988;28;20021;-81
2021/07/21 02:14:53;;;;;;;12.30;7.25;;;14.90;99.80;;;;;;5075053;28;20029;-81
2021/07/21 02:17:20;;;;;;;12.93;7.13;;;14.90;99.70;;;;;;5074790;28;20095;-81
2021/07/21 02:19:48;;;;;;;11.70;7.35;;;14.80;99.90;;;;;;5074944;28;20024;-81
2021/07/21 02:22:18;;;;;;;12.50;8.00;;;14.70;99.90;;;;;;5084356;28;20107;-81
2021/07/21 02:24:46;;;;;;;17.20;8.18;;;14.70;99.90;;;;;;5093728;28;20019;-81
2021/07/21 02:27:12;;;;;;;12.90;7.75;;;14.70;99.90;;;;;;5094457;28;20419;-81
2021/07/21 02:29:38;;;;;;;10.75;7.25;;;14.60;99.90;;;;;;5093542;28;20020;-80
2021/07/21 02:32:14;;;;;;;12.55;7.18;;;14.50;99.90;;;;;;5093551;28;20394;-80
2021/07/21 02:34:43;;;;;;;13.43;6.88;;;14.40;99.90;;;;;;5093561;28;20110;-80
2021/07/21 02:37:12;;;;;;;11.23;7.97;;;14.50;99.90;;;;;;5093444;28;20027;-80
2021/07/21 02:39:38;;;;;;;13.10;7.78;;;14.40;99.90;;;;;;5093358;28;20473;-79
2021/07/21 02:42:04;;;;;;;11.30;7.13;;;14.30;99.90;;;;;;5093474;28;20028;-80
2021/07/21 02:44:29;;;;;;;11.75;6.82;;;14.30;99.90;;;;;;5091362;28;20032;-79
2021/07/21 02:46:55;;;;;;;12.07;8.30;;;14.20;99.90;;;;;;5073089;28;20039;-81
2021/07/21 02:49:21;;;;;;;12.38;7.07;;;14.20;99.90;;;;;;5073983;28;20033;-81
2021/07/21 02:52:04;;;;;;;11.02;6.53;;;14.20;99.90;;;;;;5085398;28;20550;-80
2021/07/21 02:54:45;;;;;;;11.43;6.80;;;14.20;99.90;;;;;;5084242;28;20547;-81
2021/07/21 02:57:23;;;;;;;10.23;6.85;;;14.20;99.90;;;;;;5073666;28;20024;-81
2021/07/21 02:59:51;;;;;;;15.52;7.40;;;14.20;99.90;;;;;;5089246;28;20170;-80
2021/07/21 03:02:21;;;;;;;10.95;6.45;;;14.20;99.90;;;;;;5089529;28;20048;-80
2021/07/21 03:04:49;;;;;;;9.05;6.55;;;14.20;99.90;;;;;;5089381;28;20020;-80
2021/07/21 03:07:17;;;;;;;12.68;7.43;;;14.20;99.90;;;;;;5089528;28;20043;-80
2021/07/21 03:09:43;;;;;;;13.95;7.78;;;14.20;99.90;;;;;;5089312;28;20456;-80
2021/07/21 03:12:13;;;;;;;13.75;6.97;;;14.20;99.90;;;;;;5072557;28;20024;-80
2021/07/21 03:14:41;;;;;;;10.10;6.85;;;14.20;99.90;;;;;;5072308;28;20473;-80
2021/07/21 03:17:12;;;;;;;9.93;6.97;;;14.10;99.90;;;;;;5089394;28;20025;-80
2021/07/21 03:19:41;;;;;;;11.10;6.78;;;14.20;99.90;;;;;;5089220;28;20028;-80
2021/07/21 03:22:08;;;;;;;9.88;6.95;;;14.20;99.90;;;;;;5089352;28;20025;-80
2021/07/21 03:24:34;;;;;;;10.82;7.13;;;14.20;99.90;;;;;;5072575;28;20017;-80
2021/07/21 03:27:00;;;;;;;9.20;6.47;;;14.20;99.90;;;;;;5089512;28;20111;-81
2021/07/21 03:29:29;;;;;;;11.65;6.93;;;14.10;99.90;;;;;;5093848;28;20119;-81
2021/07/21 03:31:56;;;;;;;9.52;6.18;;;14.20;99.90;;;;;;5092519;28;20024;-80
2021/07/21 03:34:23;;;;;;;13.18;7.38;;;14.20;99.90;;;;;;5092047;28;20110;-81
2021/07/21 03:36:52;;;;;;;9.82;7.38;;;14.20;99.90;;;;;;5092383;28;20050;-81
2021/07/21 03:39:19;;;;;;;13.05;11.27;;;14.30;99.90;;;;;;5091980;28;20028;-81
2021/07/21 03:41:46;;;;;;;10.95;6.68;;;14.20;99.90;;;;;;5092306;28;20099;-81
2021/07/21 03:44:13;;;;;;;11.38;7.15;;;14.30;99.90;;;;;;5093330;28;20024;-81
2021/07/21 03:46:40;;;;;;;11.38;8.50;;;14.30;99.90;;;;;;5091981;28;20073;-80
2021/07/21 03:49:07;;;;;;;12.13;7.07;;;14.40;98.80;;;;;;5091881;28;20047;-80
2021/07/21 03:51:35;;;;;;;15.10;7.82;;;14.60;96.60;;;;;;5092473;28;20071;-81
2021/07/21 03:54:03;;;;;;;22.23;11.10;;;14.70;96.70;;;;;;5091779;28;20039;-80
2021/07/21 03:56:30;;;;;;;19.85;10.27;;;14.80;94.50;;;;;;5091565;28;20031;-81
2021/07/21 03:58:56;;;;;;;13.73;9.15;;;14.90;93.60;;;;;;5092026;28;20036;-81
2021/07/21 04:01:23;;;;;;;15.88;9.30;;;15.00;93.10;;;;;;5090827;28;20020;-81
2021/07/21 04:03:49;;;;;;;14.70;10.10;;;15.00;92.50;;;;;;5093116;28;20126;-80
2021/07/21 04:06:18;;;;;;;12.82;8.98;;;15.10;92.60;;;;;;5091846;28;20024;-80
2021/07/21 04:08:44;;;;;;;16.48;9.07;;;15.20;91.90;;;;;;5092686;28;20026;-79
2021/07/21 04:11:12;;;;;;;13.20;7.72;;;15.30;90.90;;;;;;5093010;28;20020;-81
2021/07/21 04:13:40;;;;;;;16.02;10.70;;;15.40;90.90;;;;;;5092882;28;20473;-80
2021/07/21 04:16:12;;;;;;;15.25;8.75;;;15.50;90.20;;;;;;5091879;28;20016;-80
2021/07/21 04:18:38;;;;;;;14.73;8.60;;;15.60;90.50;;;;;;5092715;28;20039;-81
2021/07/21 04:21:07;;;;;;;13.93;8.25;;;15.50;88.30;;;;;;5089961;28;20070;-81
2021/07/21 04:23:34;;;;;;;13.93;8.73;;;15.50;89.20;;;;;;5091339;28;20032;-81
2021/07/21 04:26:00;;;;;;;13.35;8.40;;;15.50;89.40;;;;;;5091689;28;20013;-81
2021/07/21 04:28:27;;;;;;;14.68;8.77;;;15.60;89.00;;;;;;5092861;28;20493;-80
2021/07/21 04:30:58;;;;;;;12.15;7.55;;;15.60;90.10;;;;;;5091668;28;20028;-80
2021/07/21 04:33:24;;;;;;;14.48;8.05;;;15.70;89.20;;;;;;5091657;28;20028;-80
2021/07/21 04:35:52;;;;;;;13.30;7.90;;;15.70;88.70;;;;;;5091616;28;20140;-80
2021/07/21 04:38:18;;;;;;;14.90;8.10;;;15.80;89.00;;;;;;5091422;28;20039;-80
2021/07/21 04:40:46;;;;;;;14.05;8.60;;;15.80;89.30;;;;;;5091584;28;20381;-81
2021/07/21 04:43:12;;;;;;;15.65;8.27;;;15.90;88.50;;;;;;5091098;28;20024;-81
2021/07/21 04:45:46;;;;;;;13.57;8.38;;;15.90;89.50;;;;;;5091495;28;20020;-81
2021/07/21 04:48:13;;;;;;;20.10;9.70;;;15.90;88.00;;;;;;5088891;28;20025;-81
2021/07/21 04:50:40;;;;;;;14.18;9.35;;;15.90;90.20;;;;;;5090956;28;20052;-81
2021/07/21 04:53:06;;;;;;;16.00;8.93;;;15.90;91.50;;;;;;5088261;28;20381;-81
2021/07/21 04:55:32;;;;;;;13.88;9.27;;;15.80;91.90;;;;;;5088644;28;20026;-81
2021/07/21 04:57:58;;;;;;;15.40;8.75;;;16.00;91.90;;;;;;5090364;28;20032;-81
2021/07/21 05:00:23;;;;;;;13.63;7.32;;;16.00;92.40;;;;;;5089212;28;20016;-81
2021/07/21 05:02:49;;;;;;;14.40;8.05;;;16.00;92.20;;;;;;5089093;28;20028;-81
2021/07/21 05:05:15;;;;;;;9.77;7.22;;;16.00;92.90;;;;;;5089233;28;20491;-80
2021/07/21 05:07:40;;;;;;;13.80;7.00;;;16.10;92.50;;;;;;5090482;28;20112;-80
2021/07/21 05:10:06;;;;;;;10.82;7.00;;;16.20;92.30;;;;;;5089217;28;20032;-80
2021/07/21 05:12:32;;;;;;;10.77;7.13;;;16.10;93.50;;;;;;5088967;28;20016;-81
2021/07/21 05:14:58;;;;;;;9.30;6.55;;;16.30;93.30;;;;;;5089439;28;20031;-81
2021/07/21 05:17:23;;;;;;;13.40;7.13;;;16.40;92.50;;;;;;5089055;28;20035;-81
2021/07/21 05:19:49;;;;;;;14.50;7.32;;;16.60;92.80;;;;;;5076029;28;20033;-81
2021/07/21 05:22:15;;;;;;;11.80;6.68;;;16.80;92.70;;;;;;5075873;28;20056;-81
2021/07/21 05:24:40;;;;;;;9.30;5.72;;;17.00;91.10;;;;;;5082227;28;20417;-81
2021/07/21 05:27:06;;;;;;;9.73;6.20;;;17.00;88.70;;;;;;5075745;28;20029;-80
2021/07/21 05:29:32;;;;;;;11.93;7.05;;;17.20;89.70;;;;;;5075502;28;20021;-81
2021/07/21 05:31:58;;;;;;;12.57;7.38;;;17.40;88.50;;;;;;5074520;28;20031;-81
2021/07/21 05:34:25;;;;;;;9.63;5.72;;;17.40;84.70;;;;;;5086997;28;20093;-81
2021/07/21 05:36:51;;;;;;;10.73;6.35;;;17.40;85.90;;;;;;5095904;28;20016;-81
2021/07/21 05:39:16;;;;;;;8.07;5.45;;;17.50;86.40;;;;;;5095657;28;20516;-80
2021/07/21 05:41:44;;;;;;;9.68;5.15;;;17.70;85.10;;;;;;5094258;28;20016;-82
2021/07/21 05:44:09;;;;;;;8.45;6.03;;;17.80;84.50;;;;;;5095631;28;20481;-82
2021/07/21 05:46:35;;;;;;;10.65;5.40;;;17.90;84.50;;;;;;5095687;28;20070;-81
2021/07/21 05:49:01;;;;;;;11.07;7.47;;;17.90;82.80;;;;;;5087534;28;20074;-81
2021/07/21 05:51:26;;;;;;;10.10;5.72;;;17.90;82.90;;;;;;5075134;28;20016;-80
2021/07/21 05:53:55;;;;;;;6.90;5.10;;;18.00;81.70;;;;;;5095461;28;20051;-81
2021/07/21 05:56:22;;;;;;;13.68;5.57;;;18.10;82.40;;;;;;5086057;28;20020;-80
2021/07/21 05:58:47;;;;;;;6.68;5.38;;;18.20;81.70;;;;;;5090519;28;20024;-80
2021/07/21 06:01:13;;;;;;;9.75;5.93;;;18.30;80.60;;;;;;5091597;28;20535;-80
2021/07/21 06:03:39;;;;;;;11.40;6.22;;;18.20;80.70;;;;;;5091002;28;20471;-80
2021/07/21 06:06:06;;;;;;;7.70;5.45;;;18.40;81.00;;;;;;5092669;28;20493;-80
2021/07/21 06:08:31;;;;;;;12.05;6.75;;;18.50;80.30;;;;;;5092743;28;20031;-80
2021/07/21 06:10:58;;;;;;;8.30;5.50;;;18.60;79.40;;;;;;5093490;28;20024;-79
2021/07/21 06:13:25;;;;;;;9.52;6.45;;;18.40;78.50;;;;;;5091627;28;20541;-79
2021/07/21 06:15:51;;;;;;;8.90;5.95;;;18.50;77.20;;;;;;5090680;28;20024;-79
2021/07/21 06:18:17;;;;;;;12.32;6.10;;;18.70;78.70;;;;;;5085674;28;20458;-79
2021/07/21 06:20:43;;;;;;;7.82;5.63;;;18.90;76.40;;;;;;5090321;28;20099;-79
2021/07/21 06:23:09;;;;;;;10.82;6.15;;;19.10;77.40;;;;;;5089349;28;20024;-79
2021/07/21 06:25:34;;;;;;;9.85;6.22;;;19.00;75.90;;;;;;5088857;28;20095;-79
2021/07/21 06:28:00;;;;;;;9.85;6.07;;;19.00;76.50;;;;;;5091012;28;20028;-79
2021/07/21 06:30:26;;;;;;;12.50;6.20;;;19.10;77.50;;;;;;5090373;28;20457;-79
2021/07/21 06:32:51;;;;;;;8.63;6.38;;;19.30;81.20;;;;;;5091110;28;20077;-79
2021/07/21 06:35:17;;;;;;;9.30;6.13;;;19.30;78.40;;;;;;5091980;28;20400;-79
2021/07/21 06:37:43;;;;;;;9.52;5.82;;;19.50;78.70;;;;;;5092548;28;20031;-79
2021/07/21 06:40:10;;;;;;;8.68;5.82;;;19.50;78.80;;;;;;5093997;28;20048;-79
2021/07/21 06:42:36;;;;;;;9.60;5.47;;;19.50;74.10;;;;;;5092521;28;20020;-79
2021/07/21 06:45:03;;;;;;;8.90;5.82;;;19.50;72.50;;;;;;5093873;28;20027;-79
2021/07/21 06:47:29;;;;;;;5.88;4.43;;;19.60;74.80;;;;;;5084259;28;20406;-79
2021/07/21 06:49:54;;;;;;;7.57;5.07;;;19.70;74.80;;;;;;5072945;28;20027;-79
2021/07/21 06:52:22;;;;;;;6.80;4.95;;;19.60;72.90;;;;;;5074164;28;20116;-79
2021/07/21 06:54:48;;;;;;;19.08;9.07;;;19.70;72.40;;;;;;5074064;28;20050;-79
2021/07/21 06:57:14;;;;;;;19.42;10.10;;;19.80;73.70;;;;;;5072801;28;20024;-79
2021/07/21 06:59:40;;;;;;;10.60;5.93;;;20.00;74.50;;;;;;5072674;28;20044;-79
2021/07/21 07:02:06;;;;;;;10.05;5.35;;;19.90;72.70;;;;;;5074067;28;20088;-79
2021/07/21 07:04:33;;;;;;;10.27;6.63;;;19.80;74.00;;;;;;5072536;28;20020;-79
2021/07/21 07:06:58;;;;;;;8.90;5.38;;;19.90;73.80;;;;;;5072720;28;20023;-79
2021/07/21 07:09:24;;;;;;;7.70;5.05;;;19.90;73.80;;;;;;5072513;28;20032;-79
2021/07/21 07:11:51;;;;;;;9.32;5.20;;;19.80;73.00;;;;;;5072538;28;20187;-79
2021/07/21 07:14:18;;;;;;;8.00;4.90;;;19.60;73.30;;;;;;5073647;28;20047;-78
2021/07/21 07:16:44;;;;;;;8.52;4.95;;;19.80;75.30;;;;;;5074808;28;20021;-79
2021/07/21 07:19:10;;;;;;;7.75;4.68;;;19.80;72.90;;;;;;5073334;28;20024;-79
2021/07/21 07:21:36;;;;;;;6.22;4.75;;;19.80;73.60;;;;;;5073562;28;20016;-79
2021/07/21 07:24:03;;;;;;;11.43;5.20;;;20.10;73.90;;;;;;5076629;28;20039;-78
2021/07/21 07:26:29;;;;;;;9.15;5.60;;;20.20;72.90;;;;;;5092242;28;20058;-79
2021/07/21 07:28:56;;;;;;;7.85;4.70;;;20.30;72.70;;;;;;5093726;28;20028;-79
2021/07/21 07:31:22;;;;;;;7.60;5.00;;;20.10;74.40;;;;;;5092363;28;20020;-79
2021/07/21 07:33:48;;;;;;;10.15;5.18;;;20.30;73.50;;;;;;5093826;28;20058;-78
2021/07/21 07:36:14;;;;;;;9.38;5.20;;;20.60;72.60;;;;;;5092366;28;20028;-79
2021/07/21 07:38:40;;;;;;;10.85;6.45;;;20.30;73.50;;;;;;5089505;28;20512;-78
2021/07/21 07:41:06;;;;;;;8.27;5.60;;;20.60;73.90;;;;;;5080915;28;20448;-79
2021/07/21 07:43:36;;;;;;;8.27;5.35;;;20.80;74.90;;;;;;5081600;28;20016;-78
2021/07/21 07:46:03;;;;;;;10.98;5.10;;;21.00;74.00;;;;;;5082837;28;20020;-78
2021/07/21 07:48:28;;;;;;;8.48;6.03;;;20.90;69.40;;;;;;5075396;28;20031;-78
2021/07/21 07:50:54;;;;;;;6.22;4.90;;;20.90;69.70;;;;;;5082488;28;20111;-79
2021/07/21 07:53:19;;;;;;;8.10;4.30;;;20.80;71.30;;;;;;5081710;28;20017;-79
2021/07/21 07:55:45;;;;;;;7.05;4.65;;;20.80;69.90;;;;;;5081069;28;20027;-78
2021/07/21 07:58:24;;;;;;;9.43;4.40;;;20.90;69.30;;;;;;5080436;28;20032;-78
2021/07/21 08:01:06;;;;;;;7.45;5.15;;;20.90;69.20;;;;;;5079701;28;20496;-78
2021/07/21 08:03:36;;;;;;;4.43;3.25;;;20.90;69.20;;;;;;5074305;28;20016;-79
2021/07/21 08:06:03;;;;;;;7.75;4.28;;;20.90;67.00;;;;;;5078549;28;20020;-78
2021/07/21 08:08:29;;;;;;;8.63;4.03;;;20.80;67.50;;;;;;5081883;28;20475;-78
2021/07/21 08:10:55;;;;;;;10.18;4.38;;;21.00;68.70;;;;;;5080116;28;20470;-79
2021/07/21 08:13:22;;;;;;;7.93;4.22;;;21.10;67.80;;;;;;5076880;28;20100;-78
2021/07/21 08:15:48;;;;;;;9.88;4.60;;;21.10;67.90;;;;;;5081299;28;20409;-78
2021/07/21 08:18:16;;;;;;;9.52;5.03;;;21.40;68.50;;;;;;5078912;28;20501;-79
2021/07/21 08:20:43;;;;;;;6.25;5.38;;;21.70;67.10;;;;;;5081973;28;20028;-79
2021/07/21 08:23:09;;;;;;;8.35;4.45;;;21.40;68.50;;;;;;5080811;28;20031;-79
2021/07/21 08:25:35;;;;;;;8.57;4.53;;;21.00;66.90;;;;;;5078560;28;20040;-78
2021/07/21 08:28:01;;;;;;;6.25;4.78;;;20.90;67.20;;;;;;5082419;28;20032;-78
2021/07/21 08:30:26;;;;;;;11.45;5.50;;;20.80;68.10;;;;;;5081789;28;20058;-78
2021/07/21 08:32:53;;;;;;;10.02;5.30;;;20.70;68.90;;;;;;5080247;28;20489;-78
2021/07/21 08:35:23;;;;;;;6.82;4.40;;;21.00;69.30;;;;;;5081669;28;20016;-79
2021/07/21 08:37:48;;;;;;;5.28;4.20;;;21.40;69.80;;;;;;5081775;28;20513;-78
2021/07/21 08:40:15;;;;;;;9.73;3.63;;;21.20;66.20;;;;;;5080409;28;20020;-79
2021/07/21 08:42:41;;;;;;;5.28;4.78;;;21.20;68.00;;;;;;5080262;28;20039;-79
2021/07/21 08:45:09;;;;;;;11.95;4.68;;;21.20;68.30;;;;;;5079669;28;20029;-78
2021/07/21 08:47:35;;;;;;;14.75;6.07;;;20.80;67.50;;;;;;5086277;28;20027;-79
2021/07/21 08:50:06;;;;;;;5.57;4.63;;;20.70;69.20;;;;;;5091467;28;20024;-78
2021/07/21 08:52:32;;;;;;;9.30;6.15;;;20.90;69.00;;;;;;5092540;28;20054;-78
2021/07/21 08:54:58;;;;;;;12.10;5.45;;;20.80;67.30;;;;;;5072666;28;20067;-78
2021/07/21 08:57:28;;;;;;;7.65;5.15;;;21.00;69.10;;;;;;5075303;28;20028;-78
2021/07/21 08:59:55;;;;;;;6.95;4.63;;;21.30;69.60;;;;;;5075037;28;20050;-78
2021/07/21 09:02:21;;;;;;;6.50;4.45;;;21.50;66.90;;;;;;5089387;28;20020;-79
2021/07/21 09:04:47;;;;;;;14.98;5.15;;;21.30;64.00;;;;;;5095082;28;20026;-78
2021/07/21 09:07:13;;;;;;;11.23;5.60;;;21.10;64.50;;;;;;5095824;28;20020;-78
2021/07/21 09:09:38;;;;;;;11.45;4.97;;;21.00;65.10;;;;;;5095745;28;20035;-78
2021/07/21 09:12:07;;;;;;;9.68;4.60;;;20.70;63.90;;;;;;5096428;28;20077;-78
2021/07/21 09:14:33;;;;;;;8.75;5.30;;;20.60;63.60;;;;;;5095451;28;20501;-78
2021/07/21 09:17:17;;;;;;;7.25;4.40;;;20.50;64.80;;;;;;5095068;28;20013;-79
2021/07/21 09:19:48;;;;;;;10.77;5.63;;;20.60;65.40;;;;;;5096113;28;20028;-78
2021/07/21 09:22:24;;;;;;;8.48;4.80;;;20.60;66.10;;;;;;5094829;28;20149;-78
2021/07/21 09:25:10;;;;;;;7.03;3.85;;;20.70;66.80;;;;;;5094858;28;20020;-78
2021/07/21 09:27:37;;;;;;;6.57;3.92;;;20.80;66.60;;;;;;5094680;28;20054;-79
2021/07/21 09:30:04;;;;;;;7.47;4.35;;;21.20;64.40;;;;;;5095976;28;20028;-79
2021/07/21 09:32:30;;;;;;;8.65;4.18;;;21.60;62.00;;;;;;5094269;28;20028;-78
2021/07/21 09:34:56;;;;;;;6.18;4.15;;;21.70;60.60;;;;;;5094676;28;20028;-79
2021/07/21 09:37:22;;;;;;;6.95;4.25;;;21.90;60.70;;;;;;5094578;28;20043;-79
2021/07/21 09:39:52;;;;;;;5.53;3.88;;;21.70;59.40;;;;;;5095536;28;20077;-79
2021/07/21 09:42:27;;;;;;;6.70;4.28;;;21.70;60.00;;;;;;5094534;28;20416;-79
2021/07/21 09:44:53;;;;;;;4.63;3.58;;;21.20;61.40;;;;;;5088486;28;20020;-78
2021/07/21 09:47:24;;;;;;;7.13;4.13;;;21.10;62.90;;;;;;5074145;28;20021;-80
2021/07/21 09:50:09;;;;;;;4.50;3.65;;;21.10;64.80;;;;;;5075247;28;20028;-78
2021/07/21 09:52:45;;;;;;;8.27;4.22;;;20.80;62.10;;;;;;5074020;28;20047;-78
2021/07/21 09:55:14;;;;;;;5.72;4.30;;;20.80;62.70;;;;;;5073985;28;20039;-79
2021/07/21 09:57:40;;;;;;;7.40;3.78;;;20.80;63.80;;;;;;5075067;28;20028;-79
2021/07/21 10:00:26;;;;;;;7.53;4.03;;;20.90;63.60;;;;;;5073785;28;20047;-78
2021/07/21 10:03:08;;;;;;;6.80;4.03;;;21.10;61.40;;;;;;5075291;28;20032;-79
2021/07/21 10:05:34;;;;;;;4.90;3.60;;;21.40;63.10;;;;;;5075084;28;20027;-78
2021/07/21 10:08:03;;;;;;;6.60;3.75;;;21.90;62.00;;;;;;5073299;28;20028;-79
2021/07/21 10:10:31;;;;;;;9.65;4.63;;;22.50;60.80;;;;;;5073649;28;20382;-78
2021/07/21 10:13:08;;;;;;;8.50;4.28;;;22.90;60.00;;;;;;5074935;28;20021;-79
2021/07/21 10:15:34;;;;;;;6.88;4.80;;;23.10;55.90;;;;;;5085630;28;20415;-79
2021/07/21 10:18:09;;;;;;;8.18;4.30;;;23.10;58.00;;;;;;5091924;28;20032;-78
2021/07/21 10:20:35;;;;;;;7.43;4.10;;;23.10;56.30;;;;;;5093303;28;20110;-79
2021/07/21 10:23:02;;;;;;;8.15;3.38;;;23.00;54.10;;;;;;5094334;28;20031;-79
2021/07/21 10:25:30;;;;;;;4.75;3.75;;;22.90;53.50;;;;;;5094665;28;20047;-78
2021/07/21 10:27:57;;;;;;;4.88;3.97;;;22.60;53.10;;;;;;5094350;28;20021;-78
2021/07/21 10:47:31;;;;;;;8.45;3.67;;;22.30;56.20;;;;;;5118160;27;20024;-78
2021/07/21 10:50:00;;;;;;;6.82;4.30;;;22.50;55.60;;;;;;5096498;28;20020;-78
2021/07/21 10:55:02;;;;;;;5.25;3.63;;;22.40;54.00;;;;;;5131110;27;20066;-78
2021/07/21 11:00:19;;;;;;;6.43;4.10;;;22.70;54.40;;;;;;5135355;27;20042;-78
2021/07/21 11:02:46;;;;;;;5.72;3.42;;;23.00;53.00;;;;;;5134362;27;20031;-79
2021/07/21 11:05:30;;;;;;;6.55;3.75;;;23.10;53.20;;;;;;5116119;27;20019;-79
2021/07/21 11:07:57;;;;;;;4.70;3.83;;;23.10;53.10;;;;;;5132408;27;20027;-78
2021/07/21 11:10:34;;;;;;;7.95;4.15;;;23.40;52.40;;;;;;5116016;27;20031;-78
2021/07/21 11:13:02;;;;;;;7.75;3.97;;;23.60;50.70;;;;;;5135175;27;20533;-78
2021/07/21 11:15:39;;;;;;;5.50;3.75;;;23.30;49.50;;;;;;5116585;27;20390;-79
2021/07/21 11:18:24;;;;;;;7.20;3.97;;;23.10;50.90;;;;;;5116276;27;20396;-78
2021/07/21 11:21:04;;;;;;;4.93;4.10;;;23.10;52.50;;;;;;5134710;27;20031;-78
2021/07/21 11:23:39;;;;;;;9.60;4.65;;;22.70;52.90;;;;;;5116320;27;20018;-79
2021/07/21 11:26:36;;;;;;;5.78;3.55;;;22.80;53.70;;;;;;5116442;27;20057;-79
2021/07/21 11:29:27;;;;;;;5.70;3.97;;;23.10;54.60;;;;;;5134491;27;20062;-78
2021/07/21 11:31:55;;;;;;;6.28;4.03;;;23.50;53.40;;;;;;5134699;27;20030;-78
2021/07/21 11:34:39;;;;;;;5.95;4.20;;;23.70;51.00;;;;;;5116080;27;20031;-78
2021/07/21 11:37:08;;;;;;;6.50;4.07;;;23.70;50.10;;;;;;5134801;27;20057;-78
2021/07/21 11:39:47;;;;;;;5.65;4.18;;;23.80;50.00;;;;;;5134387;27;20027;-78
2021/07/21 11:45:09;;;;;;;5.70;3.13;;;24.20;50.50;;;;;;5133970;27;20030;-78
2021/07/21 11:47:37;;;;;;;6.13;3.50;;;24.20;51.10;;;;;;5115881;27;20118;-78
2021/07/21 11:50:17;;;;;;;4.45;3.50;;;23.70;50.60;;;;;;5115923;27;20441;-78
2021/07/21 11:52:44;;;;;;;6.38;3.65;;;23.60;51.70;;;;;;5115917;27;20560;-78
2021/07/21 11:55:09;;;;;;;10.73;3.67;;;23.70;53.80;;;;;;5133966;27;20103;-79
2021/07/21 11:57:35;;;;;;;9.25;4.05;;;23.50;52.00;;;;;;5134106;27;20027;-79
2021/07/21 12:00:04;;;;;;;6.38;3.67;;;23.30;51.20;;;;;;5115706;27;20055;-79
2021/07/21 12:02:30;;;;;;;6.72;3.63;;;23.00;50.70;;;;;;5133788;27;20023;-79
2021/07/21 12:05:05;;;;;;;7.38;3.70;;;22.80;51.10;;;;;;5115625;27;20027;-79
2021/07/21 12:07:33;;;;;;;4.20;3.60;;;22.70;50.20;;;;;;5133998;27;20023;-79
2021/07/21 12:10:10;;;;;;;5.03;4.38;;;22.60;49.30;;;;;;5115661;27;20400;-79
2021/07/21 12:12:36;;;;;;;7.30;3.97;;;22.50;49.90;;;;;;5115603;28;20023;-79
2021/07/21 12:15:04;;;;;;;5.00;4.03;;;22.40;52.40;;;;;;5133972;27;20024;-79
2021/07/21 12:17:30;;;;;;;5.88;4.10;;;22.30;54.30;;;;;;5115241;27;20027;-79
2021/07/21 12:20:09;;;;;;;6.60;3.80;;;22.20;55.50;;;;;;5133707;27;20506;-79
2021/07/21 12:22:45;;;;;;;5.95;3.78;;;21.90;55.50;;;;;;5115101;27;20027;-78
2021/07/21 12:25:14;;;;;;;4.32;3.92;;;21.60;56.20;;;;;;5114595;28;20156;-78
2021/07/21 12:27:42;;;;;;;6.18;4.28;;;21.30;56.80;;;;;;5115288;28;20377;-79
2021/07/21 12:30:36;;;;;;;6.00;3.75;;;21.40;57.70;;;;;;5117169;27;20029;-79
2021/07/21 12:33:02;;;;;;;7.10;4.43;;;21.30;57.90;;;;;;5137753;27;20035;-79
2021/07/21 12:35:29;;;;;;;7.05;4.40;;;21.30;58.00;;;;;;5122022;27;20035;-78
2021/07/21 12:37:57;;;;;;;6.55;4.43;;;21.30;58.50;;;;;;5140393;27;20031;-79
2021/07/21 12:40:27;;;;;;;5.95;4.07;;;21.20;58.10;;;;;;5140308;27;20098;-79
2021/07/21 12:42:56;;;;;;;5.50;4.10;;;21.30;58.30;;;;;;5121892;27;20388;-78
2021/07/21 12:45:25;;;;;;;7.50;4.13;;;21.40;58.90;;;;;;5122049;27;20019;-79
2021/07/21 12:47:54;;;;;;;7.25;3.90;;;21.60;58.80;;;;;;5140777;27;20156;-79
2021/07/21 12:50:29;;;;;;;6.82;4.63;;;21.80;58.90;;;;;;5121824;27;20545;-79
2021/07/21 12:53:19;;;;;;;5.13;4.15;;;21.90;58.50;;;;;;5121629;27;20015;-79
2021/07/21 12:55:49;;;;;;;9.82;4.20;;;21.90;56.60;;;;;;5139624;27;20472;-79
2021/07/21 12:58:18;;;;;;;6.82;4.57;;;22.10;57.30;;;;;;5140305;27;20058;-79
2021/07/21 13:00:50;;;;;;;7.10;4.40;;;22.10;57.10;;;;;;5140242;27;20029;-79
2021/07/21 13:03:17;;;;;;;;;;;22.50;57.00;;;;;;5140131;27;20472;-78
2021/07/21 13:05:43;;;;;;;7.72;4.45;;;22.70;55.50;;;;;;5140135;27;19903;-79
2021/07/21 13:08:18;;;;;;;4.55;3.78;;;22.90;54.00;;;;;;5138857;27;20027;-79
2021/07/21 13:10:46;;;;;;;6.00;4.30;;;23.30;54.30;;;;;;5121248;27;20102;-79
2021/07/21 13:13:25;;;;;;;5.28;3.92;;;23.50;52.60;;;;;;5140171;27;20024;-79
2021/07/21 13:16:03;;;;;;;6.00;3.88;;;23.70;50.60;;;;;;5121759;27;20025;-78
2021/07/21 13:18:36;;;;;;;5.35;3.55;;;23.70;49.40;;;;;;5140077;27;20031;-79